createdAt,value
2018-09-04T00:00:48.976Z,100822.00
2018-09-04T00:05:53.025Z,100821.00
2018-09-04T00:10:57.046Z,100820.00
2018-09-04T00:16:05.260Z,100818.00
2018-09-04T00:21:09.320Z,100814.00
2018-09-04T00:26:13.370Z,100814.00
2018-09-04T00:31:17.462Z,100810.00
2018-09-04T00:36:21.262Z,100807.00
2018-09-04T00:41:25.401Z,100802.00
2018-09-04T00:46:29.242Z,100805.00
2018-09-04T00:51:33.345Z,100806.00
2018-09-04T00:56:37.406Z,100799.00
2018-09-04T01:01:41.989Z,100804.00
2018-09-04T01:06:46.042Z,100811.00
2018-09-04T01:11:50.050Z,100813.00
2018-09-04T01:16:54.146Z,100813.00
2018-09-04T01:21:58.177Z,100802.00
2018-09-04T01:27:01.981Z,100804.00
2018-09-04T01:32:07.333Z,100813.00
2018-09-04T01:37:11.125Z,100820.00
2018-09-04T01:42:15.229Z,100820.00
2018-09-04T01:47:19.026Z,100816.00
2018-09-04T01:52:23.066Z,100816.00
2018-09-04T01:57:27.107Z,100810.00
2018-09-04T02:02:32.038Z,100809.00
2018-09-04T02:07:36.073Z,100808.00
2018-09-04T02:12:40.125Z,100797.00
2018-09-04T02:17:44.236Z,100792.00
2018-09-04T02:22:48.104Z,100788.00
2018-09-04T02:27:51.914Z,100787.00
2018-09-04T02:32:56.018Z,100783.00
2018-09-04T02:38:00.073Z,100787.00
2018-09-04T02:43:04.195Z,100786.00
2018-09-04T02:48:08.246Z,100790.00
2018-09-04T02:53:12.298Z,100785.00
2018-09-04T02:58:16.389Z,100787.00
2018-09-04T03:03:20.453Z,100793.00
2018-09-04T03:08:24.659Z,100796.00
2018-09-04T03:13:28.778Z,100790.00
2018-09-04T03:18:32.538Z,100799.00
2018-09-04T03:23:36.617Z,100801.00
2018-09-04T03:28:40.461Z,100802.00
2018-09-04T03:33:44.538Z,100799.00
2018-09-04T03:38:48.612Z,100801.00
2018-09-04T03:43:52.490Z,100797.00
2018-09-04T03:48:56.310Z,100796.00
2018-09-04T03:54:00.383Z,100794.00
2018-09-04T03:59:04.480Z,100793.00
2018-09-04T04:04:08.331Z,100793.00
2018-09-04T04:09:12.384Z,100797.00
2018-09-04T04:14:16.471Z,100798.00
2018-09-04T04:19:20.376Z,100807.00
2018-09-04T04:24:24.494Z,100816.00
2018-09-04T04:29:28.882Z,100818.00
2018-09-04T04:34:33.702Z,100811.00
2018-09-04T04:39:37.530Z,100819.00
2018-09-04T04:44:41.734Z,100823.00
2018-09-04T04:49:45.566Z,100826.00
2018-09-04T04:54:49.400Z,100824.00
2018-09-04T04:59:53.873Z,100816.00
2018-09-04T05:04:58.047Z,100816.00
2018-09-04T05:10:02.422Z,100819.00
2018-09-04T05:15:06.414Z,100814.00
2018-09-04T05:20:11.864Z,100805.00
2018-09-04T05:25:16.055Z,100810.00
2018-09-04T05:30:20.162Z,100813.00
2018-09-04T05:35:24.355Z,100824.00
2018-09-04T05:40:28.450Z,100822.00
2018-09-04T05:45:34.034Z,100822.00
2018-09-04T05:50:38.198Z,100828.00
2018-09-04T05:55:42.121Z,100827.00
2018-09-04T06:00:50.057Z,100823.00
2018-09-04T06:05:53.972Z,100796.00
2018-09-04T06:10:57.831Z,100799.00
2018-09-04T06:16:01.998Z,100795.00
2018-09-04T06:21:05.839Z,100790.00
2018-09-04T06:26:10.033Z,100795.00
2018-09-04T06:31:14.144Z,100802.00
2018-09-04T06:36:18.267Z,100810.00
2018-09-04T06:41:22.351Z,100817.00
2018-09-04T06:46:26.473Z,100831.00
2018-09-04T06:51:30.742Z,100834.00
2018-09-04T06:56:34.862Z,100832.00
2018-09-04T07:01:39.043Z,100822.00
2018-09-04T07:06:43.038Z,100822.00
2018-09-04T07:11:47.165Z,100827.00
2018-09-04T07:16:51.027Z,100817.00
2018-09-04T07:21:54.821Z,100825.00
2018-09-04T07:26:58.666Z,100831.00
2018-09-04T07:32:02.743Z,100855.00
2018-09-04T07:37:07.176Z,100844.00
2018-09-04T07:42:11.528Z,100844.00
2018-09-04T07:47:15.625Z,100836.00
2018-09-04T07:52:19.446Z,100833.00
2018-09-04T07:57:23.270Z,100840.00
2018-09-04T08:02:27.107Z,100839.00
2018-09-04T08:07:30.978Z,100836.00
2018-09-04T08:12:34.906Z,100827.00
2018-09-04T08:17:38.982Z,100823.00
2018-09-04T08:22:43.067Z,100815.00
2018-09-04T08:27:47.162Z,100860.00
2018-09-04T08:32:51.056Z,100875.00
2018-09-04T08:38:01.178Z,100883.00
2018-09-04T08:43:05.251Z,100923.00
2018-09-04T08:48:14.389Z,101001.00
2018-09-04T08:53:18.689Z,101009.00
2018-09-04T08:58:29.458Z,101008.00
2018-09-04T09:03:33.259Z,101016.00
2018-09-04T09:08:37.125Z,101017.00
2018-09-04T09:13:40.964Z,101015.00
2018-09-04T09:18:45.099Z,101015.00
2018-09-04T09:23:49.196Z,101014.00
2018-09-04T09:28:53.392Z,101004.00
2018-09-04T09:33:57.483Z,101004.00
2018-09-04T09:39:01.595Z,101005.00
2018-09-04T09:44:05.779Z,100992.00
2018-09-04T09:49:10.269Z,100996.00
2018-09-04T09:54:14.565Z,100998.00
2018-09-04T09:59:18.421Z,100992.00
2018-09-04T10:04:22.491Z,100981.00
2018-09-04T10:09:26.338Z,100978.00
2018-09-04T10:14:30.478Z,100975.00
2018-09-04T10:19:34.862Z,100961.00
2018-09-04T10:24:38.979Z,100960.00
2018-09-04T10:29:42.816Z,100956.00
2018-09-04T10:34:46.695Z,100953.00
2018-09-04T10:39:56.242Z,100935.00
2018-09-04T10:45:00.185Z,100950.00
2018-09-04T10:50:04.299Z,100931.00
2018-09-04T10:55:08.767Z,100923.00
2018-09-04T11:00:14.065Z,100919.00
2018-09-04T11:05:18.145Z,100922.00
2018-09-04T11:10:22.271Z,100914.00
2018-09-04T11:15:26.399Z,100912.00
2018-09-04T11:20:30.497Z,100904.00
2018-09-04T11:25:34.590Z,100907.00
2018-09-04T11:30:39.460Z,100900.00
2018-09-04T11:35:43.314Z,100905.00
2018-09-04T11:40:47.372Z,100906.00
2018-09-04T11:45:51.453Z,100904.00
2018-09-04T11:50:55.417Z,100901.00
2018-09-04T11:55:59.300Z,100897.00
2018-09-04T12:01:05.005Z,100894.00
2018-09-04T12:06:08.895Z,100888.00
2018-09-04T12:11:13.007Z,100896.00
2018-09-04T12:16:17.918Z,100888.00
2018-09-04T12:21:22.554Z,100890.00
2018-09-04T12:26:26.305Z,100883.00
2018-09-04T12:31:30.178Z,100872.00
2018-09-04T12:36:34.327Z,100879.00
2018-09-04T12:41:38.405Z,100877.00
2018-09-04T12:46:42.493Z,100873.00
2018-09-04T12:51:46.588Z,100874.00
2018-09-04T12:56:50.452Z,100878.00
2018-09-04T13:02:01.349Z,100878.00
2018-09-04T13:07:05.519Z,100874.00
2018-09-04T13:12:09.691Z,100881.00
2018-09-04T13:24:37.575Z,100865.00
2018-09-04T13:29:41.679Z,100863.00
2018-09-04T13:34:46.750Z,100855.00
2018-09-04T13:39:55.667Z,100854.00
2018-09-04T13:44:59.786Z,100856.00
2018-09-04T13:50:03.642Z,100843.00
2018-09-04T13:55:08.015Z,100851.00
2018-09-04T14:00:13.378Z,100855.00
2018-09-04T14:05:17.534Z,100846.00
2018-09-04T14:10:21.675Z,100847.00
2018-09-04T14:15:25.511Z,100842.00
2018-09-04T14:20:29.356Z,100840.00
2018-09-04T14:25:33.339Z,100833.00
2018-09-04T14:30:37.482Z,100837.00
2018-09-04T14:35:41.255Z,100841.00
2018-09-04T14:40:45.197Z,100836.00
2018-09-04T14:45:49.319Z,100840.00
2018-09-04T14:50:53.719Z,100845.00
2018-09-04T14:55:57.811Z,100863.00
2018-09-04T15:01:01.970Z,100860.00
2018-09-04T15:06:06.192Z,100870.00
2018-09-04T15:11:10.019Z,100873.00
2018-09-04T15:16:13.838Z,100869.00
2018-09-04T15:21:18.053Z,100867.00
2018-09-04T15:26:21.972Z,100860.00
2018-09-04T15:31:26.059Z,100863.00
2018-09-04T15:36:30.236Z,100861.00
2018-09-04T15:41:34.347Z,100866.00
2018-09-04T15:46:38.286Z,100870.00
2018-09-04T15:51:42.459Z,100872.00
2018-09-04T15:56:46.389Z,100874.00
2018-09-04T16:01:50.437Z,100885.00
2018-09-04T16:06:54.245Z,100882.00
2018-09-04T16:11:58.394Z,100884.00
2018-09-04T16:17:02.462Z,100883.00
2018-09-04T16:22:06.315Z,100882.00
2018-09-04T16:27:11.111Z,100863.00
2018-09-04T16:32:15.062Z,100879.00
2018-09-04T16:37:19.193Z,100880.00
2018-09-04T16:42:23.278Z,100873.00
2018-09-04T16:47:27.457Z,100873.00
2018-09-04T16:52:31.739Z,100876.00
2018-09-04T16:57:35.892Z,100883.00
2018-09-04T17:02:39.759Z,100896.00
2018-09-04T17:07:44.280Z,100907.00
2018-09-04T17:12:48.188Z,100913.00
2018-09-04T17:17:52.253Z,100926.00
2018-09-04T17:22:56.112Z,100927.00
2018-09-04T17:28:00.364Z,100931.00
2018-09-04T17:33:04.518Z,100930.00
2018-09-04T17:38:08.505Z,100923.00
2018-09-04T17:43:12.583Z,100925.00
2018-09-04T17:48:17.560Z,100923.00
2018-09-04T17:53:21.544Z,100924.00
2018-09-04T17:58:25.410Z,100923.00
2018-09-04T18:03:29.651Z,100925.00
2018-09-04T18:08:33.785Z,100926.00
2018-09-04T18:13:38.583Z,100926.00
2018-09-04T18:18:42.684Z,100926.00
2018-09-04T18:23:46.849Z,100925.00
2018-09-04T18:28:50.705Z,100917.00
2018-09-04T18:33:54.578Z,100914.00
2018-09-04T18:38:58.465Z,100911.00
2018-09-04T18:44:02.602Z,100901.00
2018-09-04T18:49:06.584Z,100889.00
2018-09-04T18:54:10.467Z,100883.00
2018-09-04T18:59:14.575Z,100883.00
2018-09-04T19:04:18.420Z,100869.00
2018-09-04T19:09:22.555Z,100840.00
2018-09-04T19:14:27.037Z,100837.00
2018-09-04T19:19:31.236Z,100824.00
2018-09-04T19:24:35.310Z,100824.00
2018-09-04T19:29:39.425Z,100814.00
2018-09-04T19:34:43.650Z,100814.00
2018-09-04T19:39:47.716Z,100807.00
2018-09-04T19:44:51.645Z,100808.00
2018-09-04T19:49:55.531Z,100797.00
2018-09-04T19:54:59.699Z,100795.00
2018-09-04T20:00:03.800Z,100793.00
2018-09-04T20:05:08.291Z,100798.00
2018-09-04T20:10:12.356Z,100795.00
2018-09-04T20:15:16.428Z,100792.00
2018-09-04T20:20:20.485Z,100795.00
2018-09-04T20:25:24.615Z,100791.00
2018-09-04T20:30:28.699Z,100792.00
2018-09-04T20:35:32.851Z,100791.00
2018-09-04T20:40:37.001Z,100790.00
2018-09-04T20:45:41.187Z,100781.00
2018-09-04T20:50:45.062Z,100778.00
2018-09-04T20:55:49.196Z,100778.00
2018-09-04T21:01:04.366Z,100774.00
2018-09-04T21:06:19.449Z,100775.00
2018-09-04T21:11:23.627Z,100778.00
2018-09-04T21:16:27.718Z,100767.00
2018-09-04T21:21:31.822Z,100765.00
2018-09-04T21:26:35.896Z,100765.00
2018-09-04T21:31:39.717Z,100767.00
2018-09-04T21:36:43.792Z,100756.00
2018-09-04T21:41:48.076Z,100754.00
2018-09-04T21:46:52.143Z,100750.00
2018-09-04T21:51:56.216Z,100746.00
2018-09-04T21:57:00.103Z,100741.00
2018-09-04T22:02:04.166Z,100740.00
2018-09-04T22:07:08.965Z,100734.00
2018-09-04T22:12:13.087Z,100729.00
2018-09-04T22:17:17.487Z,100723.00
2018-09-04T22:22:21.618Z,100720.00
2018-09-04T22:27:25.697Z,100716.00
2018-09-04T22:32:29.806Z,100719.00
2018-09-04T22:37:33.907Z,100718.00
2018-09-04T22:42:37.958Z,100716.00
2018-09-04T22:47:42.306Z,100712.00
2018-09-04T22:52:46.379Z,100704.00
2018-09-04T22:57:50.483Z,100700.00
2018-09-04T23:02:54.314Z,100696.00
2018-09-04T23:07:58.404Z,100690.00
2018-09-04T23:13:02.233Z,100689.00
2018-09-04T23:18:06.133Z,100689.00
2018-09-04T23:23:10.101Z,100685.00
2018-09-04T23:28:14.182Z,100684.00
2018-09-04T23:33:18.271Z,100675.00
2018-09-04T23:38:23.822Z,100671.00
2018-09-04T23:43:27.899Z,100673.00
2018-09-04T23:48:32.039Z,100672.00
2018-09-04T23:53:36.182Z,100666.00
2018-09-04T23:58:40.015Z,100663.00
